BBC Polonia — V2EZ6 — position and weather

sailwx.info

Track history (hours):
 
Tides and Currents Weather Stations Pressure Air Temp Water Temp Dewpoint Dewpoint Depression Visibility Wind Speed Wind Dir Waves Ship Positions

BBC Polonia

Last reported at 2017-Aug-11 15:04 UTC. Time now 2017-Aug-21 23:41 UTC.
Position S 32°39' E 152°37'.
Warning: this ship's position is 10 days out of date.

Length 123 m; draft 6.1 m.

Type: Cargo ship. MMSI: 305614000.

Date/timePositionNaut miles runAvg speedWind from/ knotsBaromVisibWave heightAir tempDewpointWater temp
2017-Aug-11 15:04S 32°39' E 152°37'113.5
2017-Aug-11 15:00S 32°40' E 152°36'1313.4
2017-Aug-11 14:00S 32°46' E 152°22'713.1
2017-Aug-11 13:30S 32°49' E 152°15'612.8
2017-Aug-11 13:00S 32°52' E 152°08'612.6
2017-Aug-11 12:30S 32°54' E 152°01'912.2
2017-Aug-11 11:48S 32°57' E 151°51'6 0.1
2017-Aug-09 21:45S 32°54' E 151°46'0 0.0
2017-Aug-09 21:12S 32°54' E 151°46'0 0.0
2017-Aug-09 21:00S 32°54' E 151°46'2 2.7
2017-Aug-09 20:16S 32°55' E 151°47'2 7.7
2017-Aug-09 20:00S 32°55' E 151°49'4 7.6
2017-Aug-09 19:29S 32°58' E 151°52'1 0.0
2017-Aug-07 19:58S 32°60' E 151°51'511.1
2017-Aug-07 19:30S 32°57' E 151°56'511.0
2017-Aug-07 19:00S 32°53' E 152°01'510.7
2017-Aug-07 18:30S 32°52' E 152°08'510.7
2017-Aug-07 18:00S 32°50' E 152°13'510.4
2017-Aug-07 17:31S 32°48' E 152°19'510.7
2017-Aug-07 17:00S 32°45' E 152°25'510.5
2017-Aug-07 16:30S 32°43' E 152°30'510.4
2017-Aug-07 16:00S 32°41' E 152°36'  
Track history (hours):
 
Tides and Currents Weather Stations Pressure Air Temp Water Temp Dewpoint Dewpoint Depression Visibility Wind Speed Wind Dir Waves Ship Positions

BBC Polonia

Last reported at 2017-Aug-11 15:04 UTC. Time now 2017-Aug-21 23:41 UTC.
Position S 32°39' E 152°37'.
Warning: this ship's position is 10 days out of date.

Length 123 m; draft 6.1 m.

Type: Cargo ship. MMSI: 305614000.

Date/timePositionNaut miles runAvg speedWind from/ knotsBaromVisibWave heightAir tempDewpointWater temp
2017-Aug-11 15:04S 32°39' E 152°37'113.5
2017-Aug-11 15:00S 32°40' E 152°36'1313.4
2017-Aug-11 14:00S 32°46' E 152°22'713.1
2017-Aug-11 13:30S 32°49' E 152°15'612.8
2017-Aug-11 13:00S 32°52' E 152°08'612.6
2017-Aug-11 12:30S 32°54' E 152°01'912.2
2017-Aug-11 11:48S 32°57' E 151°51'6 0.1
2017-Aug-09 21:45S 32°54' E 151°46'0 0.0
2017-Aug-09 21:12S 32°54' E 151°46'0 0.0
2017-Aug-09 21:00S 32°54' E 151°46'2 2.7
2017-Aug-09 20:16S 32°55' E 151°47'2 7.7
2017-Aug-09 20:00S 32°55' E 151°49'4 7.6
2017-Aug-09 19:29S 32°58' E 151°52'1 0.0
2017-Aug-07 19:58S 32°60' E 151°51'511.1
2017-Aug-07 19:30S 32°57' E 151°56'511.0
2017-Aug-07 19:00S 32°53' E 152°01'510.7
2017-Aug-07 18:30S 32°52' E 152°08'510.7
2017-Aug-07 18:00S 32°50' E 152°13'510.4
2017-Aug-07 17:31S 32°48' E 152°19'510.7
2017-Aug-07 17:00S 32°45' E 152°25'510.5
2017-Aug-07 16:30S 32°43' E 152°30'510.4
2017-Aug-07 16:00S 32°41' E 152°36'  

Dump ship's entire track history